Time;durP1;ratioP1;P1;durP2;ratioP2;P2;SDS_P1;SDS_P2;PMS_P1;PMS_P2;Temp;Humidity;BMP_temperature;BMP_pressure;BME280_temperature;BME280_humidity;BME280_pressure;Samples;Min_cycle;Max_cycle;Signal;HPM_P1;HPM_P2
2021/12/19 00:02:29;;;;;;;1.75;0.65;;;;;;;10.19;100.00;100569.09;5052917;28;20056;-70
2021/12/19 00:10:30;;;;;;;0.77;0.68;;;;;;;10.27;100.00;100562.44;5052941;28;20067;-70
2021/12/19 00:13:00;;;;;;;0.73;0.40;;;;;;;10.27;100.00;100557.28;5052177;28;20531;-71
2021/12/19 00:15:29;;;;;;;0.32;0.30;;;;;;;10.31;100.00;100581.53;5052521;28;20510;-70
2021/12/19 00:17:57;;;;;;;0.85;0.50;;;;;;;10.33;100.00;100574.69;5043027;28;20418;-69
2021/12/19 00:20:26;;;;;;;0.30;0.30;;;;;;;10.34;100.00;100579.06;5052808;28;20491;-72
2021/12/19 00:22:55;;;;;;;0.57;0.35;;;;;;;10.38;100.00;100575.72;5053553;28;20575;-72
2021/12/19 00:25:24;;;;;;;0.70;0.30;;;;;;;10.42;100.00;100583.59;5052559;28;20049;-72
2021/12/19 00:27:55;;;;;;;0.22;0.10;;;;;;;10.46;100.00;100579.38;5052412;28;20049;-72
2021/12/19 00:30:25;;;;;;;1.05;0.40;;;;;;;10.43;100.00;100575.00;5052837;28;20060;-79
2021/12/19 00:32:54;;;;;;;0.73;0.40;;;;;;;10.43;100.00;100581.88;5038545;28;20110;-76
2021/12/19 00:35:23;;;;;;;3.95;0.40;;;;;;;10.47;100.00;100581.16;5053116;28;20062;-74
2021/12/19 00:37:52;;;;;;;0.35;0.25;;;;;;;10.42;100.00;100577.53;5052486;28;20520;-77
2021/12/19 00:40:21;;;;;;;0.32;0.30;;;;;;;10.38;100.00;100571.41;5054143;28;20057;-71
2021/12/19 00:42:52;;;;;;;1.02;0.30;;;;;;;10.37;100.00;100580.00;5051950;28;20087;-71
2021/12/19 00:45:27;;;;;;;2.25;0.30;;;;;;;10.37;100.00;100594.66;5052214;28;20055;-70
2021/12/19 00:47:58;;;;;;;0.32;0.30;;;;;;;10.35;100.00;100581.66;5052830;28;20136;-72
2021/12/19 00:50:28;;;;;;;0.40;0.30;;;;;;;10.29;100.00;100583.22;5039930;28;20052;-75
2021/12/19 00:52:57;;;;;;;0.40;0.35;;;;;;;10.31;100.00;100581.53;5054967;28;20072;-73
2021/12/19 00:55:28;;;;;;;0.93;0.40;;;;;;;10.20;100.00;100587.25;5054333;28;20077;-71
2021/12/19 00:57:57;;;;;;;0.90;0.55;;;;;;;10.20;100.00;100592.44;5053297;28;20053;-71
2021/12/19 01:00:30;;;;;;;1.38;0.40;;;;;;;10.17;100.00;100594.94;5052397;28;20103;-75
2021/12/19 01:03:02;;;;;;;0.75;0.43;;;;;;;10.20;100.00;100600.19;5051403;28;20045;-71
2021/12/19 01:05:35;;;;;;;0.80;0.40;;;;;;;10.20;100.00;100607.94;5052450;28;20049;-71
2021/12/19 01:08:05;;;;;;;0.80;0.50;;;;;;;10.24;100.00;100630.47;5051606;28;20567;-72
2021/12/19 01:10:33;;;;;;;2.50;0.88;;;;;;;10.27;100.00;100629.69;5051847;28;20482;-72
2021/12/19 01:13:02;;;;;;;0.85;0.45;;;;;;;10.31;100.00;100639.31;5051325;28;20065;-72
2021/12/19 01:15:39;;;;;;;1.42;0.57;;;;;;;10.34;100.00;100638.53;5051967;28;20130;-75
2021/12/19 02:59:56;;;;;;;0.10;0.10;;;;;;;8.51;100.00;100723.75;4935709;28;20130;-71
2021/12/19 03:02:27;;;;;;;0.10;0.10;;;;;;;8.46;100.00;100729.59;4925951;29;20052;-72
2021/12/19 03:04:56;;;;;;;0.10;0.10;;;;;;;8.41;100.00;100726.84;4937302;29;20486;-72
2021/12/19 03:07:25;;;;;;;1.70;0.28;;;;;;;8.37;100.00;100722.34;4924890;29;20114;-72
2021/12/19 03:10:06;;;;;;;0.47;0.20;;;;;;;8.35;100.00;100723.97;4936571;29;20083;-72
2021/12/19 03:12:49;;;;;;;2.17;0.17;;;;;;;8.30;100.00;100725.50;4934299;29;20552;-72
2021/12/19 03:18:08;;;;;;;1.00;0.15;;;;;;;8.17;100.00;100716.41;4939208;29;20066;-72
2021/12/19 03:20:41;;;;;;;0.20;0.20;;;;;;;8.10;100.00;100723.03;4937662;29;20083;-72
2021/12/19 03:23:11;;;;;;;0.13;0.13;;;;;;;8.02;100.00;100728.69;4935481;29;20059;-71
2021/12/19 03:25:40;;;;;;;0.25;0.25;;;;;;;7.98;100.00;100732.88;4937308;29;20063;-71
2021/12/19 03:28:11;;;;;;;0.25;0.20;;;;;;;7.88;100.00;100725.56;4937435;29;20111;-71
2021/12/19 03:30:44;;;;;;;0.43;0.20;;;;;;;7.76;100.00;100732.03;4937184;29;20058;-71
2021/12/19 03:33:20;;;;;;;0.93;0.30;;;;;;;7.74;100.00;100738.81;4936836;29;20079;-72
2021/12/19 03:35:49;;;;;;;1.08;0.63;;;;;;;7.71;100.00;100743.81;4937544;29;20090;-73
2021/12/19 03:38:18;;;;;;;0.68;0.50;;;;;;;7.73;100.00;100746.47;4937013;29;20056;-73
2021/12/19 03:41:06;;;;;;;1.85;0.35;;;;;;;7.76;100.00;100752.63;4936851;29;20467;-71
2021/12/19 03:43:34;;;;;;;1.25;0.50;;;;;;;7.83;100.00;100758.00;4936736;29;20732;-72
2021/12/19 03:46:04;;;;;;;0.90;0.60;;;;;;;7.83;100.00;100758.88;4937160;29;20091;-71
2021/12/19 03:48:33;;;;;;;1.00;0.55;;;;;;;7.83;100.00;100769.19;4937258;29;20107;-71
2021/12/19 03:51:01;;;;;;;0.98;0.50;;;;;;;7.87;100.00;100775.34;4936948;29;20123;-73
2021/12/19 03:53:30;;;;;;;0.75;0.40;;;;;;;7.87;100.00;100772.78;4936062;29;20086;-73
2021/12/19 03:55:58;;;;;;;1.60;0.47;;;;;;;7.88;100.00;100766.78;4936695;29;20075;-73
2021/12/19 03:58:27;;;;;;;1.10;0.60;;;;;;;7.85;100.00;100766.69;4937920;28;20107;-71
2021/12/19 04:01:00;;;;;;;0.63;0.30;;;;;;;7.80;100.00;100773.34;4936967;29;20094;-71
2021/12/19 04:03:30;;;;;;;0.20;0.20;;;;;;;7.76;100.00;100773.25;4936535;29;20059;-74
2021/12/19 04:05:58;;;;;;;0.20;0.10;;;;;;;7.72;100.00;100776.50;4936492;29;20079;-70
2021/12/19 04:08:27;;;;;;;0.40;0.30;;;;;;;7.69;100.00;100785.78;4935878;29;20071;-71
2021/12/19 04:10:56;;;;;;;0.10;0.10;;;;;;;7.65;100.00;100789.94;4935837;29;20044;-71
2021/12/19 04:13:24;;;;;;;0.10;0.10;;;;;;;7.63;100.00;100791.56;4936431;29;20577;-71
2021/12/19 04:15:53;;;;;;;0.10;0.10;;;;;;;7.62;100.00;100794.94;4937354;29;20052;-72
2021/12/19 04:18:22;;;;;;;0.45;0.30;;;;;;;7.59;100.00;100788.78;4950655;29;20497;-71
2021/12/19 04:20:52;;;;;;;0.30;0.20;;;;;;;7.54;100.00;100781.75;4937618;29;20055;-75
2021/12/19 04:23:20;;;;;;;0.10;0.10;;;;;;;7.51;100.00;100803.91;4936450;29;20577;-76
2021/12/19 04:25:50;;;;;;;1.45;0.47;;;;;;;7.46;100.00;100801.13;4936260;29;20055;-75
2021/12/19 04:28:18;;;;;;;0.25;0.17;;;;;;;7.43;100.00;100797.56;4937030;29;20048;-74
2021/12/19 04:30:47;;;;;;;0.43;0.30;;;;;;;7.43;100.00;100805.28;4935946;29;20095;-72
2021/12/19 04:33:16;;;;;;;0.65;0.60;;;;;;;7.40;100.00;100802.56;4935861;29;20047;-74
2021/12/19 04:35:45;;;;;;;0.30;0.30;;;;;;;7.39;100.00;100811.13;4936530;29;20078;-71
2021/12/19 04:41:24;;;;;;;0.35;0.30;;;;;;;7.40;100.00;100803.47;4935996;29;20051;-72
2021/12/19 04:55:35;;;;;;;0.20;0.20;;;;;;;7.34;100.00;100827.22;4928916;29;20106;-72
2021/12/19 04:58:18;;;;;;;0.10;0.10;;;;;;;7.36;100.00;100816.13;4937432;28;20585;-72
2021/12/19 05:00:57;;;;;;;0.30;0.30;;;;;;;7.36;100.00;100821.28;4925558;29;20501;-71
2021/12/19 05:03:34;;;;;;;0.20;0.20;;;;;;;7.33;100.00;100819.47;4935544;29;20095;-74
2021/12/19 05:06:10;;;;;;;0.30;0.22;;;;;;;7.22;100.00;100815.53;4935394;29;20060;-73
2021/12/19 05:14:13;;;;;;;0.95;0.47;;;;;;;7.16;100.00;100829.00;4922000;29;20054;-73
2021/12/19 05:16:45;;;;;;;80.72;35.15;;;;;;;7.13;100.00;100839.16;4935087;29;20454;-75
2021/12/19 05:19:23;;;;;;;141.98;44.80;;;;;;;7.09;100.00;100843.28;4947964;29;20051;-75
2021/12/19 05:21:56;;;;;;;134.05;47.72;;;;;;;7.06;100.00;100847.44;4933994;29;20528;-77
2021/12/19 05:24:45;;;;;;;;;;;;;;;7.06;100.00;100847.44;4935511;29;20573;-76
2021/12/19 05:27:16;;;;;;;15.20;6.65;;;;;;;7.06;100.00;100850.88;4935419;29;20017;-74
2021/12/19 05:29:44;;;;;;;23.88;8.20;;;;;;;7.10;100.00;100857.03;4935294;29;20051;-73
2021/12/19 05:32:12;;;;;;;5.18;1.17;;;;;;;7.14;100.00;100872.66;4934688;29;20071;-73
2021/12/19 05:34:41;;;;;;;0.40;0.40;;;;;;;7.16;100.00;100875.31;4934942;29;20094;-75
2021/12/19 05:45:27;;;;;;;0.10;0.10;;;;;;;6.95;100.00;100884.66;4924507;29;20059;-72
2021/12/19 05:47:55;;;;;;;0.25;0.17;;;;;;;6.96;100.00;100891.53;4934900;29;20055;-73
2021/12/19 05:50:25;;;;;;;1.10;0.30;;;;;;;6.96;100.00;100899.25;4934793;29;20060;-71
2021/12/19 05:52:54;;;;;;;0.10;0.10;;;;;;;6.88;100.00;100902.34;4933881;29;20052;-70
2021/12/19 05:55:24;;;;;;;3.50;0.20;;;;;;;6.77;100.00;100897.53;4934254;29;20059;-72
2021/12/19 05:57:54;;;;;;;0.20;0.20;;;;;;;6.77;100.00;100894.94;4936067;28;20048;-72
2021/12/19 06:00:24;;;;;;;0.10;0.10;;;;;;;6.80;100.00;100892.50;4934873;29;20047;-71
2021/12/19 06:02:55;;;;;;;0.65;0.13;;;;;;;6.79;100.00;100896.78;4934237;29;20062;-72
2021/12/19 06:05:24;;;;;;;0.25;0.25;;;;;;;6.77;100.00;100890.69;4936154;29;20414;-71
2021/12/19 06:08:08;;;;;;;0.10;0.10;;;;;;;6.78;100.00;100894.13;4934499;29;20493;-72
2021/12/19 06:10:36;;;;;;;0.15;0.15;;;;;;;6.75;100.00;100892.28;4937332;29;20386;-73
2021/12/19 06:13:07;;;;;;;1.77;0.10;;;;;;;6.72;100.00;100890.47;4934267;29;20486;-71
2021/12/19 06:15:36;;;;;;;0.10;0.10;;;;;;;6.69;100.00;100905.75;4934502;29;20051;-71
2021/12/19 06:18:05;;;;;;;0.52;0.20;;;;;;;6.68;100.00;100900.53;4937939;29;20098;-72
2021/12/19 06:20:34;;;;;;;0.10;0.10;;;;;;;6.65;100.00;100905.53;4935429;29;20553;-71
2021/12/19 06:23:03;;;;;;;0.10;0.10;;;;;;;6.60;100.00;100902.75;4946108;29;20090;-72
2021/12/19 06:25:31;;;;;;;0.20;0.20;;;;;;;6.59;100.00;100906.13;4934614;29;20048;-69
2021/12/19 06:28:00;;;;;;;0.32;0.17;;;;;;;6.57;100.00;100902.59;4934562;29;20123;-70
2021/12/19 06:30:30;;;;;;;0.47;0.20;;;;;;;6.57;100.00;100901.72;4934300;29;20044;-70
2021/12/19 06:32:58;;;;;;;4.95;0.43;;;;;;;6.54;100.00;100917.00;4934063;29;20103;-70
2021/12/19 06:35:29;;;;;;;0.17;0.15;;;;;;;6.46;100.00;100920.09;4933846;29;20110;-70
2021/12/19 06:37:58;;;;;;;0.10;0.10;;;;;;;6.36;100.00;100912.72;4934199;29;20150;-70
2021/12/19 06:40:27;;;;;;;0.88;0.43;;;;;;;6.29;100.00;100908.09;4934065;29;20054;-69
2021/12/19 06:42:55;;;;;;;0.10;0.10;;;;;;;6.29;100.00;100926.94;4933258;29;20571;-70
2021/12/19 06:45:24;;;;;;;0.95;0.20;;;;;;;6.31;100.00;100929.59;4934168;29;20102;-70
2021/12/19 06:47:54;;;;;;;0.13;0.10;;;;;;;6.33;100.00;100928.00;4933877;29;20498;-69
2021/12/19 06:50:23;;;;;;;0.57;0.20;;;;;;;6.29;100.00;100933.78;4933886;29;20142;-70
2021/12/19 06:52:51;;;;;;;0.17;0.15;;;;;;;6.26;100.00;100942.22;4933567;29;20091;-70
2021/12/19 06:55:21;;;;;;;0.20;0.15;;;;;;;6.17;100.00;100940.91;4933985;29;20059;-70
2021/12/19 06:57:49;;;;;;;0.50;0.50;;;;;;;6.16;100.00;100954.53;4935202;28;20082;-71
2021/12/19 07:00:20;;;;;;;0.50;0.25;;;;;;;6.08;100.00;100949.88;4933406;29;20043;-70
2021/12/19 07:02:48;;;;;;;2.97;0.30;;;;;;;6.00;100.00;100953.78;4933446;29;20111;-70
2021/12/19 07:05:18;;;;;;;0.30;0.20;;;;;;;5.97;100.00;100942.44;4933592;29;20051;-70
2021/12/19 07:07:47;;;;;;;0.20;0.20;;;;;;;5.98;100.00;100934.84;4933949;29;20075;-70
2021/12/19 07:10:16;;;;;;;0.10;0.10;;;;;;;5.96;100.00;100943.25;4933981;29;20047;-71
2021/12/19 07:12:44;;;;;;;0.38;0.10;;;;;;;5.92;100.00;100939.59;4933836;29;20047;-72
2021/12/19 07:15:14;;;;;;;0.30;0.10;;;;;;;5.91;100.00;100931.81;4944765;29;20047;-71
2021/12/19 07:17:42;;;;;;;0.20;0.20;;;;;;;5.90;100.00;100924.94;4935065;29;20083;-72
2021/12/19 07:20:12;;;;;;;0.55;0.20;;;;;;;5.84;100.00;100931.53;4938605;29;20111;-70
2021/12/19 07:22:42;;;;;;;0.10;0.10;;;;;;;5.82;100.00;100930.56;4933159;29;20074;-71
2021/12/19 07:25:11;;;;;;;0.32;0.20;;;;;;;5.83;100.00;100934.00;4933560;29;20055;-71
2021/12/19 07:27:39;;;;;;;1.08;0.20;;;;;;;5.79;100.00;100932.06;4933832;29;20044;-71
2021/12/19 07:30:09;;;;;;;0.50;0.30;;;;;;;5.77;100.00;100932.03;4933938;29;20852;-70
2021/12/19 07:32:38;;;;;;;0.32;0.30;;;;;;;5.76;100.00;100934.50;4932749;29;20047;-70
2021/12/19 07:35:09;;;;;;;0.20;0.10;;;;;;;5.69;100.00;100934.97;4933980;29;20054;-71
2021/12/19 07:37:38;;;;;;;0.65;0.30;;;;;;;5.57;100.00;100950.63;4933664;29;20044;-71
2021/12/19 07:40:14;;;;;;;1.20;0.17;;;;;;;5.49;100.00;100947.63;4933931;29;20052;-70
2021/12/19 07:42:44;;;;;;;0.10;0.10;;;;;;;5.43;100.00;100942.22;4933249;29;20142;-71
2021/12/19 07:45:12;;;;;;;0.10;0.10;;;;;;;5.33;100.00;100917.72;4934273;29;20079;-71
2021/12/19 07:47:41;;;;;;;1.33;0.30;;;;;;;5.23;100.00;100918.91;4937706;29;20055;-70
2021/12/19 07:50:11;;;;;;;0.73;0.55;;;;;;;5.17;100.00;100928.84;4937226;29;20081;-70
2021/12/19 07:52:40;;;;;;;0.10;0.10;;;;;;;5.11;100.00;100923.41;4937593;29;20051;-71
2021/12/19 07:55:11;;;;;;;0.20;0.20;;;;;;;5.04;100.00;100921.31;4930016;29;20086;-70
2021/12/19 07:57:40;;;;;;;0.30;0.22;;;;;;;5.01;100.00;100939.06;4938378;29;20063;-70
2021/12/19 08:00:11;;;;;;;0.50;0.30;;;;;;;4.98;100.00;100931.22;4939152;28;20135;-71
2021/12/19 08:02:40;;;;;;;0.30;0.17;;;;;;;4.94;100.00;100935.28;4936494;29;20063;-70
2021/12/19 08:05:09;;;;;;;0.20;0.20;;;;;;;4.91;100.00;100927.44;4937139;29;20111;-70
2021/12/19 08:07:38;;;;;;;0.25;0.25;;;;;;;4.88;100.00;100918.69;4937026;29;20054;-70
2021/12/19 08:10:15;;;;;;;0.63;0.40;;;;;;;4.83;100.00;100919.34;4936692;29;20047;-70
2021/12/19 08:12:43;;;;;;;0.10;0.10;;;;;;;4.80;100.00;100924.28;4935803;29;20079;-70
2021/12/19 08:15:15;;;;;;;0.15;0.15;;;;;;;4.79;100.00;100926.78;4929316;29;20053;-71
2021/12/19 08:17:43;;;;;;;0.35;0.30;;;;;;;4.77;100.00;100924.13;4944676;29;20063;-71
2021/12/19 08:20:14;;;;;;;0.10;0.10;;;;;;;4.75;100.00;100918.00;4941130;29;20048;-70
2021/12/19 08:22:42;;;;;;;0.20;0.20;;;;;;;4.76;100.00;100922.34;4936167;29;20158;-71
2021/12/19 08:25:11;;;;;;;0.30;0.30;;;;;;;4.75;100.00;100930.84;4929273;29;20052;-71
2021/12/19 08:27:40;;;;;;;2.05;0.40;;;;;;;4.69;100.00;100942.41;4936661;29;20077;-72
2021/12/19 08:30:13;;;;;;;0.10;0.10;;;;;;;4.61;100.00;100942.88;4928581;29;20047;-71
2021/12/19 08:32:41;;;;;;;;;;;;;;;4.60;100.00;100937.66;4936268;29;20174;-71
2021/12/19 08:35:11;;;;;;;1.02;0.20;;;;;;;4.58;100.00;100942.72;4936639;29;19985;-71
2021/12/19 08:37:40;;;;;;;0.35;0.30;;;;;;;4.60;100.00;100943.69;4935792;29;20052;-70
2021/12/19 08:40:11;;;;;;;0.10;0.10;;;;;;;4.58;100.00;100937.59;4928585;29;20051;-71
2021/12/19 08:42:40;;;;;;;0.68;0.10;;;;;;;4.51;100.00;100938.03;4935753;29;20051;-71
2021/12/19 08:45:11;;;;;;;0.10;0.10;;;;;;;4.50;100.00;100938.81;4928173;29;20130;-70
2021/12/19 08:47:40;;;;;;;0.10;0.10;;;;;;;4.48;100.00;100947.22;4936323;29;20048;-70
2021/12/19 08:50:10;;;;;;;0.25;0.25;;;;;;;4.47;100.00;100935.22;4935768;29;20055;-71
2021/12/19 08:52:39;;;;;;;0.13;0.13;;;;;;;4.48;100.00;100921.59;4935573;29;20051;-70
2021/12/19 08:55:09;;;;;;;0.55;0.20;;;;;;;4.46;100.00;100921.50;4935771;29;20079;-70
2021/12/19 08:57:38;;;;;;;0.20;0.17;;;;;;;4.47;100.00;100924.97;4934892;29;20082;-70
2021/12/19 09:00:11;;;;;;;0.10;0.10;;;;;;;4.48;100.00;100911.34;4937317;28;20091;-69
2021/12/19 09:02:41;;;;;;;0.17;0.17;;;;;;;4.47;100.00;100904.47;4935635;29;20087;-69
2021/12/19 09:05:10;;;;;;;0.20;0.20;;;;;;;4.47;100.00;100883.97;4927988;29;20052;-69
2021/12/19 09:07:39;;;;;;;0.20;0.20;;;;;;;4.44;100.00;100879.53;4935938;29;20098;-69
2021/12/19 09:10:09;;;;;;;0.30;0.20;;;;;;;4.39;100.00;100879.28;4935951;29;20056;-68
2021/12/19 09:12:38;;;;;;;0.30;0.30;;;;;;;4.34;100.00;100879.84;4935561;29;20083;-69
2021/12/19 09:15:10;;;;;;;0.10;0.10;;;;;;;4.35;100.00;100887.63;4935838;29;20082;-68
2021/12/19 09:17:38;;;;;;;0.10;0.10;;;;;;;4.36;100.00;100883.38;4942738;29;20415;-68
2021/12/19 09:20:09;;;;;;;0.15;0.15;;;;;;;4.37;100.00;100882.56;4940628;29;20514;-68
2021/12/19 09:22:38;;;;;;;0.20;0.20;;;;;;;4.32;100.00;100884.84;4935287;29;20404;-68
2021/12/19 09:25:08;;;;;;;0.43;0.43;;;;;;;4.32;100.00;100895.09;4935555;29;20052;-69
2021/12/19 09:27:36;;;;;;;0.20;0.20;;;;;;;4.30;100.00;100896.69;4935375;29;20086;-68
2021/12/19 09:30:06;;;;;;;0.20;0.20;;;;;;;4.30;100.00;100889.00;4934829;29;20044;-68
2021/12/19 09:32:36;;;;;;;0.22;0.15;;;;;;;4.32;100.00;100894.22;4935005;29;20521;-69
2021/12/19 09:35:05;;;;;;;0.20;0.10;;;;;;;4.23;100.00;100892.03;4935253;29;20104;-68
2021/12/19 09:37:35;;;;;;;0.20;0.20;;;;;;;4.20;100.00;100889.28;4935158;29;20466;-68
2021/12/19 09:40:05;;;;;;;2.75;0.50;;;;;;;4.20;100.00;100887.59;4935351;29;20056;-68
2021/12/19 09:42:36;;;;;;;0.15;0.15;;;;;;;4.22;100.00;100877.47;4934624;29;20055;-69
2021/12/19 09:45:06;;;;;;;0.30;0.20;;;;;;;4.23;100.00;100878.34;4932718;29;20586;-68
2021/12/19 09:47:36;;;;;;;0.30;0.30;;;;;;;4.23;100.00;100878.34;4934118;29;20047;-68
2021/12/19 09:50:07;;;;;;;0.32;0.30;;;;;;;4.20;100.00;100886.72;4935107;29;20047;-69
2021/12/19 09:52:36;;;;;;;0.38;0.38;;;;;;;4.13;100.00;100897.44;4936640;29;20063;-69
2021/12/19 09:55:06;;;;;;;0.77;0.30;;;;;;;4.10;100.00;100894.66;4935347;29;20106;-69
2021/12/19 09:57:34;;;;;;;0.82;0.35;;;;;;;4.10;100.00;100897.22;4935133;29;20529;-69
2021/12/19 10:00:03;;;;;;;0.95;0.32;;;;;;;4.08;100.00;100906.53;4924922;28;20502;-69
2021/12/19 10:02:32;;;;;;;0.30;0.30;;;;;;;4.03;100.00;100900.22;4934108;29;20082;-70
2021/12/19 10:05:16;;;;;;;3.05;0.38;;;;;;;4.02;100.00;100904.47;4934110;29;20099;-69
2021/12/19 10:07:49;;;;;;;0.30;0.30;;;;;;;4.02;100.00;100913.84;4934987;29;20059;-70
2021/12/19 10:10:26;;;;;;;0.52;0.32;;;;;;;4.03;100.00;100907.91;4934018;29;20112;-70
2021/12/19 10:12:57;;;;;;;0.60;0.40;;;;;;;4.03;100.00;100900.22;4934313;29;20047;-70
2021/12/19 10:15:32;;;;;;;0.65;0.25;;;;;;;4.03;100.00;100905.34;4934977;29;20054;-70
2021/12/19 10:18:03;;;;;;;0.30;0.30;;;;;;;4.02;100.00;100907.03;4945024;29;20055;-70
2021/12/19 10:20:42;;;;;;;0.22;0.22;;;;;;;4.01;100.00;100899.25;4937086;29;20148;-71
2021/12/19 10:23:13;;;;;;;0.57;0.57;;;;;;;4.01;100.00;100896.69;4934154;29;20087;-71
2021/12/19 10:25:42;;;;;;;0.55;0.38;;;;;;;3.99;100.00;100892.38;4934616;29;20048;-71
2021/12/19 10:28:12;;;;;;;0.40;0.40;;;;;;;3.96;100.00;100894.78;4934451;29;20549;-71
2021/12/19 10:30:46;;;;;;;0.50;0.40;;;;;;;3.91;100.00;100885.03;4934533;29;20052;-71
2021/12/19 10:33:16;;;;;;;0.35;0.35;;;;;;;3.89;100.00;100896.88;4927254;29;20047;-71
2021/12/19 10:35:50;;;;;;;0.52;0.40;;;;;;;3.87;100.00;100896.81;4934512;29;20044;-71
2021/12/19 10:38:20;;;;;;;0.30;0.30;;;;;;;3.86;100.00;100887.34;4933991;29;20090;-70
2021/12/19 10:40:51;;;;;;;0.57;0.28;;;;;;;3.86;100.00;100887.34;4933282;29;20051;-70
2021/12/19 10:43:21;;;;;;;0.30;0.30;;;;;;;3.86;100.00;100887.34;4920747;29;20502;-69
2021/12/19 10:45:52;;;;;;;1.55;0.40;;;;;;;3.82;100.00;100885.38;4934314;29;20120;-69
2021/12/19 10:48:23;;;;;;;1.10;0.63;;;;;;;3.85;100.00;100892.34;4934444;29;20087;-69
2021/12/19 10:51:15;;;;;;;2.45;0.60;;;;;;;3.85;100.00;100889.78;4934766;29;20090;-69
2021/12/19 10:53:46;;;;;;;1.23;0.52;;;;;;;3.82;100.00;100887.94;4920620;29;20095;-69
2021/12/19 10:56:16;;;;;;;0.20;0.20;;;;;;;3.79;100.00;100882.66;4933976;29;20051;-69
2021/12/19 10:58:47;;;;;;;3.42;0.68;;;;;;;3.76;100.00;100874.81;4935494;28;20102;-69
2021/12/19 11:03:58;;;;;;;0.98;0.47;;;;;;;3.79;100.00;100872.41;4946030;23;20063;-69
2021/12/19 11:06:39;;;;;;;0.38;0.32;;;;;;;3.78;100.00;100874.09;4956960;28;20668;-68
2021/12/19 11:09:10;;;;;;;0.40;0.20;;;;;;;3.80;100.00;100879.28;4972158;28;20106;-68
2021/12/19 11:11:47;;;;;;;0.20;0.20;;;;;;;3.82;100.00;100864.91;4972031;28;20093;-68
2021/12/19 11:14:17;;;;;;;0.38;0.25;;;;;;;3.84;100.00;100868.44;4972200;28;20065;-68
2021/12/19 11:16:47;;;;;;;0.13;0.10;;;;;;;3.86;100.00;100860.88;4972271;28;20093;-68
2021/12/19 11:19:15;;;;;;;0.75;0.20;;;;;;;3.86;100.00;100856.63;4976047;28;20047;-68
2021/12/19 11:21:46;;;;;;;2.90;0.43;;;;;;;3.85;100.00;100854.88;4963563;28;20046;-68
2021/12/19 11:24:18;;;;;;;1.25;0.63;;;;;;;3.86;100.00;100866.84;4973911;28;20058;-68
2021/12/19 11:26:49;;;;;;;0.30;0.30;;;;;;;3.84;100.00;100873.56;4975212;28;20059;-68
2021/12/19 11:29:18;;;;;;;0.10;0.10;;;;;;;3.85;100.00;100870.22;4975101;28;20133;-69
2021/12/19 11:31:50;;;;;;;0.25;0.20;;;;;;;3.86;100.00;100871.97;4975543;28;20057;-68
2021/12/19 11:34:32;;;;;;;0.52;0.22;;;;;;;3.84;100.00;100865.88;4974729;28;20046;-68
2021/12/19 11:37:11;;;;;;;0.20;0.20;;;;;;;3.84;100.00;100868.44;4975123;28;20150;-68
2021/12/19 11:39:43;;;;;;;0.08;0.08;;;;;;;3.84;100.00;100863.31;4975190;28;20053;-68
2021/12/19 11:42:15;;;;;;;0.10;0.10;;;;;;;3.84;100.00;100863.31;4975263;28;20130;-68
2021/12/19 11:45:01;;;;;;;0.10;0.10;;;;;;;3.86;100.00;100855.75;4975034;28;20057;-69
2021/12/19 11:47:48;;;;;;;0.35;0.30;;;;;;;3.86;100.00;100859.19;4973960;28;20047;-68
2021/12/19 11:50:25;;;;;;;0.52;0.25;;;;;;;3.85;100.00;100848.84;4975310;28;20050;-68
2021/12/19 11:52:57;;;;;;;0.82;0.25;;;;;;;3.86;100.00;100861.75;4974652;28;20534;-69
2021/12/19 11:55:29;;;;;;;0.55;0.20;;;;;;;3.85;100.00;100857.44;4974725;28;20515;-68
2021/12/19 11:58:17;;;;;;;0.10;0.10;;;;;;;3.88;100.00;100855.03;4975203;28;20054;-68
2021/12/19 12:00:50;;;;;;;0.82;0.20;;;;;;;3.88;100.00;100849.91;4974823;28;20473;-68
2021/12/19 12:03:42;;;;;;;1.40;0.20;;;;;;;3.87;100.00;100840.50;4968670;28;20050;-68
2021/12/19 12:06:39;;;;;;;0.57;0.40;;;;;;;3.88;100.00;100841.38;4975151;28;20043;-68
2021/12/19 12:09:20;;;;;;;0.20;0.20;;;;;;;3.86;100.00;100842.94;4974698;28;20082;-68
2021/12/19 12:12:15;;;;;;;0.50;0.30;;;;;;;3.87;100.00;100837.03;4972542;28;20463;-68
2021/12/19 12:14:58;;;;;;;0.85;0.57;;;;;;;3.85;100.00;100834.41;4962193;28;20058;-69
2021/12/19 12:17:34;;;;;;;0.55;0.40;;;;;;;3.85;100.00;100834.41;4973778;28;20058;-70
2021/12/19 12:20:15;;;;;;;0.73;0.28;;;;;;;3.85;100.00;100836.03;4971338;28;20039;-69
2021/12/19 12:22:58;;;;;;;0.50;0.30;;;;;;;3.84;100.00;100831.72;4975487;28;20109;-68
2021/12/19 12:25:40;;;;;;;0.70;0.40;;;;;;;3.85;100.00;100830.94;4971589;28;20606;-69
2021/12/19 12:28:10;;;;;;;0.20;0.20;;;;;;;3.85;100.00;100829.28;4965636;28;20054;-68
2021/12/19 12:30:44;;;;;;;0.30;0.20;;;;;;;3.87;100.00;100831.91;4974254;28;20302;-69
2021/12/19 12:33:20;;;;;;;0.30;0.30;;;;;;;3.86;100.00;100831.03;4973228;28;20046;-69
2021/12/19 12:35:51;;;;;;;0.65;0.55;;;;;;;3.87;100.00;100837.94;4974705;28;20460;-69
2021/12/19 12:38:20;;;;;;;0.40;0.20;;;;;;;3.89;100.00;100820.06;4969638;28;20086;-69
2021/12/19 12:40:56;;;;;;;0.32;0.20;;;;;;;3.86;100.00;100810.53;4974326;28;20073;-68
2021/12/19 12:43:26;;;;;;;0.10;0.10;;;;;;;3.91;100.00;100808.25;4973434;28;20436;-69
2021/12/19 12:46:06;;;;;;;0.10;0.10;;;;;;;3.91;100.00;100813.38;4973754;28;20134;-69
2021/12/19 12:48:37;;;;;;;0.10;0.10;;;;;;;3.90;100.00;100816.75;4974293;28;20054;-69
2021/12/19 12:51:09;;;;;;;0.10;0.10;;;;;;;3.90;100.00;100804.81;4974352;28;20050;-69
2021/12/19 12:53:40;;;;;;;0.20;0.20;;;;;;;3.91;100.00;100793.75;4973234;28;20051;-69
2021/12/19 12:56:13;;;;;;;0.10;0.10;;;;;;;3.92;100.00;100793.00;4974187;28;20098;-69
2021/12/19 12:58:45;;;;;;;0.10;0.10;;;;;;;3.89;100.00;100782.56;4973997;28;20078;-69
2021/12/19 13:01:29;;;;;;;0.20;0.20;;;;;;;3.83;100.00;100781.34;4966504;28;20043;-69
2021/12/19 13:04:15;;;;;;;0.20;0.20;;;;;;;3.82;100.00;100782.13;4973008;28;20081;-69
2021/12/19 13:06:59;;;;;;;0.22;0.20;;;;;;;3.81;100.00;100786.38;4973598;28;20567;-68
2021/12/19 13:09:30;;;;;;;0.47;0.30;;;;;;;3.79;100.00;100785.41;4973336;28;20448;-68
2021/12/19 13:12:08;;;;;;;0.20;0.20;;;;;;;3.81;100.00;100786.38;4968201;28;20098;-69
2021/12/19 13:14:38;;;;;;;0.30;0.28;;;;;;;3.84;100.00;100793.34;4972860;28;20093;-68
2021/12/19 13:17:09;;;;;;;0.17;0.17;;;;;;;3.85;100.00;100787.41;4973266;28;20046;-68
2021/12/19 13:19:49;;;;;;;0.20;0.20;;;;;;;3.86;100.00;100789.19;4973032;28;20622;-68
2021/12/19 13:22:27;;;;;;;0.20;0.20;;;;;;;3.87;100.00;100781.63;4973088;28;20126;-68
2021/12/19 13:24:58;;;;;;;0.38;0.30;;;;;;;3.93;100.00;100786.19;4973019;28;20546;-67
2021/12/19 13:27:29;;;;;;;0.57;0.30;;;;;;;3.94;100.00;100783.72;4972900;28;20046;-68
2021/12/19 13:30:03;;;;;;;0.52;0.52;;;;;;;3.96;100.00;100781.22;4972134;28;20043;-68
2021/12/19 13:32:34;;;;;;;0.35;0.28;;;;;;;3.95;100.00;100780.34;4972546;28;20055;-67
2021/12/19 13:35:05;;;;;;;0.35;0.35;;;;;;;3.95;100.00;100784.59;4973084;28;20051;-69
2021/12/19 13:37:34;;;;;;;1.50;0.50;;;;;;;3.98;100.00;100789.88;4973075;28;20090;-68
2021/12/19 13:40:07;;;;;;;0.30;0.30;;;;;;;3.98;100.00;100785.63;4972940;28;20412;-69
2021/12/19 13:42:44;;;;;;;0.65;0.30;;;;;;;3.99;100.00;100786.53;4972704;28;20082;-68
2021/12/19 13:45:23;;;;;;;1.48;0.60;;;;;;;3.98;100.00;100795.88;4972767;28;20094;-67
2021/12/19 13:47:52;;;;;;;0.65;0.40;;;;;;;3.98;100.00;100798.44;4972858;28;20051;-67
2021/12/19 13:50:21;;;;;;;0.52;0.43;;;;;;;3.97;100.00;100799.25;4973162;28;20105;-70
2021/12/19 13:52:50;;;;;;;0.47;0.47;;;;;;;3.95;100.00;100799.97;4972597;28;20085;-69
2021/12/19 13:55:19;;;;;;;1.23;0.52;;;;;;;3.96;100.00;100797.50;4972489;28;20106;-70
2021/12/19 13:57:50;;;;;;;1.25;0.95;;;;;;;3.95;100.00;100793.16;4972725;28;20091;-69
2021/12/19 14:00:34;;;;;;;0.45;0.40;;;;;;;3.96;100.00;100800.06;4973021;28;20050;-69
2021/12/19 14:03:02;;;;;;;0.40;0.40;;;;;;;3.95;100.00;100798.28;4972676;28;20130;-68
2021/12/19 14:05:44;;;;;;;0.73;0.40;;;;;;;3.96;100.00;100797.50;4972322;28;20670;-68
2021/12/19 14:08:30;;;;;;;0.30;0.25;;;;;;;3.98;100.00;100806.13;4972531;28;20456;-69